Time;durP1;ratioP1;P1;durP2;ratioP2;P2;SDS_P1;SDS_P2;PMS_P1;PMS_P2;Temp;Humidity;BMP_temperature;BMP_pressure;BME280_temperature;BME280_humidity;BME280_pressure;Samples;Min_cycle;Max_cycle;Signal;HPM_P1;HPM_P2
2022/07/12 00:01:43;;;;;;;0.70;0.70;;;19.80;99.90;;;;;;4975400;28;20643;-60
2022/07/12 00:04:09;;;;;;;1.10;0.90;;;19.80;99.90;;;;;;4975219;28;20552;-61
2022/07/12 00:06:35;;;;;;;0.98;0.90;;;19.70;99.90;;;;;;4974819;28;20642;-60
2022/07/12 00:09:01;;;;;;;0.73;0.73;;;19.70;99.90;;;;;;4975202;28;20593;-61
2022/07/12 00:11:27;;;;;;;0.77;0.77;;;19.70;99.90;;;;;;4975263;28;20181;-61
2022/07/12 00:13:52;;;;;;;0.60;0.60;;;19.70;99.90;;;;;;4973938;28;20220;-61
2022/07/12 00:16:18;;;;;;;0.68;0.68;;;19.70;99.90;;;;;;4974859;28;20711;-61
2022/07/12 00:18:44;;;;;;;1.45;0.98;;;19.60;99.90;;;;;;4973753;28;20182;-60
2022/07/12 00:21:09;;;;;;;0.70;0.70;;;19.60;99.90;;;;;;4975165;28;20277;-61
2022/07/12 00:23:35;;;;;;;1.67;0.98;;;19.60;99.90;;;;;;4973826;28;20174;-60
2022/07/12 00:26:04;;;;;;;1.27;0.60;;;19.60;99.90;;;;;;4974960;28;20170;-61
2022/07/12 00:28:33;;;;;;;0.75;0.75;;;19.60;99.90;;;;;;4973639;28;20214;-61
2022/07/12 00:30:59;;;;;;;0.85;0.70;;;19.50;99.90;;;;;;4973867;28;20193;-60
2022/07/12 00:33:25;;;;;;;1.13;0.80;;;19.50;99.90;;;;;;4974922;28;20170;-61
2022/07/12 00:35:51;;;;;;;0.70;0.70;;;19.50;99.90;;;;;;4974725;28;20200;-61
2022/07/12 00:38:17;;;;;;;0.88;0.85;;;19.40;99.90;;;;;;4974651;28;20213;-61
2022/07/12 00:40:43;;;;;;;1.05;0.80;;;19.40;99.90;;;;;;4973731;28;20652;-57
2022/07/12 00:43:09;;;;;;;0.90;0.70;;;19.40;99.90;;;;;;4973738;28;20204;-61
2022/07/12 00:45:35;;;;;;;0.85;0.80;;;19.40;99.90;;;;;;4974554;28;20182;-61
2022/07/12 00:48:01;;;;;;;0.90;0.80;;;19.30;99.90;;;;;;4974541;28;20206;-61
2022/07/12 00:50:27;;;;;;;0.98;0.80;;;19.30;99.90;;;;;;4974766;28;20177;-60
2022/07/12 00:52:55;;;;;;;0.80;0.70;;;19.30;99.90;;;;;;4957599;28;20189;-61
2022/07/12 00:55:22;;;;;;;0.80;0.80;;;19.30;99.90;;;;;;4974642;28;20182;-61
2022/07/12 00:57:48;;;;;;;1.60;0.80;;;19.30;99.90;;;;;;4974555;28;20193;-60
2022/07/12 01:00:17;;;;;;;0.63;0.63;;;19.20;99.90;;;;;;4974460;28;20185;-60
2022/07/12 01:02:44;;;;;;;0.70;0.70;;;19.20;99.90;;;;;;4974443;28;20170;-61
2022/07/12 01:05:10;;;;;;;1.38;0.90;;;19.20;99.90;;;;;;4974648;28;20529;-61
2022/07/12 01:07:36;;;;;;;0.70;0.60;;;19.10;99.90;;;;;;4974399;28;20244;-61
2022/07/12 01:10:04;;;;;;;0.75;0.70;;;19.00;99.90;;;;;;4973414;28;20689;-61
2022/07/12 01:12:30;;;;;;;0.85;0.75;;;19.00;99.90;;;;;;4974351;28;20170;-61
2022/07/12 01:14:56;;;;;;;0.70;0.70;;;19.00;99.90;;;;;;4974439;28;20269;-61
2022/07/12 01:17:24;;;;;;;1.15;0.80;;;18.90;99.90;;;;;;4974529;28;20181;-61
2022/07/12 01:19:53;;;;;;;0.90;0.90;;;18.90;99.90;;;;;;4978339;28;20169;-61
2022/07/12 01:22:20;;;;;;;0.77;0.70;;;18.80;99.90;;;;;;4978384;28;20272;-61
2022/07/12 01:24:46;;;;;;;0.90;0.90;;;18.80;99.90;;;;;;4977089;28;20247;-61
2022/07/12 01:27:13;;;;;;;0.82;0.82;;;18.80;99.90;;;;;;4978057;28;20217;-61
2022/07/12 01:29:39;;;;;;;1.13;0.73;;;18.80;99.90;;;;;;4976895;28;20186;-60
2022/07/12 01:32:24;;;;;;;0.75;0.60;;;18.70;99.90;;;;;;4978330;28;20647;-61
2022/07/12 01:34:51;;;;;;;0.70;0.70;;;18.70;99.90;;;;;;4977191;28;20766;-61
2022/07/12 01:37:17;;;;;;;1.17;0.70;;;18.60;99.90;;;;;;4976851;28;20186;-61
2022/07/12 01:39:45;;;;;;;0.90;0.65;;;18.60;99.90;;;;;;4978164;28;20646;-60
2022/07/12 01:42:11;;;;;;;1.02;0.70;;;18.60;99.90;;;;;;4978110;28;20236;-61
2022/07/12 01:44:37;;;;;;;1.08;0.90;;;18.50;99.90;;;;;;4976812;28;20178;-61
2022/07/12 01:47:03;;;;;;;0.60;0.60;;;18.50;99.90;;;;;;4976995;28;20181;-61
2022/07/12 01:49:28;;;;;;;0.68;0.68;;;18.50;99.90;;;;;;4976725;28;20220;-61
2022/07/12 01:51:58;;;;;;;0.73;0.73;;;18.40;99.90;;;;;;4977644;28;20213;-61
2022/07/12 01:54:27;;;;;;;1.27;0.90;;;18.50;99.90;;;;;;4977652;28;20178;-61
2022/07/12 01:56:53;;;;;;;0.73;0.73;;;18.40;99.90;;;;;;4976328;28;20257;-61
2022/07/12 01:59:20;;;;;;;0.68;0.60;;;18.40;99.90;;;;;;4977755;28;20321;-61
2022/07/12 02:01:46;;;;;;;0.80;0.80;;;18.40;99.90;;;;;;4976506;28;20628;-60
2022/07/12 02:04:11;;;;;;;0.68;0.68;;;18.40;99.90;;;;;;4977489;28;20178;-61
2022/07/12 02:06:38;;;;;;;0.63;0.52;;;18.30;99.90;;;;;;4977440;28;20257;-60
2022/07/12 02:09:04;;;;;;;0.88;0.85;;;18.40;99.90;;;;;;4977259;28;20678;-60
2022/07/12 02:11:31;;;;;;;0.88;0.70;;;18.30;99.90;;;;;;4977312;28;20178;-61
2022/07/12 02:13:57;;;;;;;0.82;0.80;;;18.30;99.90;;;;;;4976260;28;20221;-61
2022/07/12 02:16:22;;;;;;;0.80;0.80;;;18.20;99.90;;;;;;4976169;28;20224;-60
2022/07/12 02:18:48;;;;;;;0.63;0.63;;;18.30;99.90;;;;;;4976034;28;20201;-61
2022/07/12 02:21:14;;;;;;;1.15;1.05;;;18.10;99.90;;;;;;4976153;28;20317;-61
2022/07/12 02:23:39;;;;;;;0.98;0.90;;;18.10;99.90;;;;;;4977122;28;20178;-61
2022/07/12 02:26:05;;;;;;;0.60;0.60;;;18.20;99.90;;;;;;4977054;28;20182;-61
2022/07/12 02:28:31;;;;;;;1.15;0.77;;;18.20;99.90;;;;;;4976669;28;20724;-61
2022/07/12 02:30:57;;;;;;;0.88;0.80;;;18.20;99.90;;;;;;4977133;28;20204;-61
2022/07/12 02:33:23;;;;;;;1.10;0.70;;;18.20;99.90;;;;;;4975923;28;20211;-61
2022/07/12 02:35:49;;;;;;;1.10;1.00;;;18.10;99.90;;;;;;4977016;28;20591;-61
2022/07/12 02:38:14;;;;;;;0.75;0.75;;;18.10;99.90;;;;;;4975741;28;20185;-61
2022/07/12 02:40:55;;;;;;;1.00;0.90;;;18.10;99.90;;;;;;4976764;28;20181;-61
2022/07/12 02:43:25;;;;;;;1.20;1.10;;;18.10;99.90;;;;;;4977023;28;20181;-60
2022/07/12 02:45:52;;;;;;;0.70;0.70;;;18.00;99.90;;;;;;4976854;28;20182;-61
2022/07/12 02:48:18;;;;;;;0.70;0.70;;;18.10;99.90;;;;;;4976619;28;20210;-61
2022/07/12 02:50:44;;;;;;;1.45;1.33;;;18.10;99.90;;;;;;4975424;28;20683;-60
2022/07/12 02:53:10;;;;;;;1.15;0.95;;;18.10;99.90;;;;;;4959210;28;20277;-61
2022/07/12 02:55:36;;;;;;;0.75;0.75;;;18.00;99.90;;;;;;4976517;28;20178;-61
2022/07/12 02:58:03;;;;;;;0.95;0.80;;;18.00;99.90;;;;;;4976672;28;20174;-61
2022/07/12 03:00:29;;;;;;;1.13;1.02;;;18.00;99.90;;;;;;4975209;28;20631;-61
2022/07/12 03:02:55;;;;;;;0.80;0.80;;;18.00;99.90;;;;;;4976496;28;20229;-56
2022/07/12 03:05:21;;;;;;;0.80;0.80;;;17.90;99.90;;;;;;4976408;28;20201;-60
2022/07/12 03:07:46;;;;;;;1.13;0.90;;;18.00;99.90;;;;;;4975520;28;20237;-61
2022/07/12 03:10:12;;;;;;;1.05;0.98;;;17.90;99.90;;;;;;4976275;28;20643;-60
2022/07/12 03:12:39;;;;;;;1.10;0.88;;;17.90;99.90;;;;;;4976662;28;20701;-61
2022/07/12 03:15:06;;;;;;;1.25;0.93;;;17.80;99.90;;;;;;4976190;28;20567;-61
2022/07/12 03:17:33;;;;;;;1.00;0.77;;;17.80;99.90;;;;;;4976177;28;20606;-61
2022/07/12 03:19:59;;;;;;;0.60;0.60;;;17.80;99.90;;;;;;4976367;28;20239;-61
2022/07/12 03:22:25;;;;;;;1.00;0.82;;;17.80;99.90;;;;;;4976051;28;20189;-60
2022/07/12 03:24:51;;;;;;;1.05;0.80;;;17.80;99.90;;;;;;4974844;28;20174;-61
2022/07/12 03:27:17;;;;;;;0.75;0.75;;;17.80;99.90;;;;;;4976035;28;20614;-61
2022/07/12 03:29:43;;;;;;;0.95;0.85;;;17.70;99.90;;;;;;4975984;28;20182;-61
2022/07/12 03:32:09;;;;;;;1.42;1.13;;;17.70;99.90;;;;;;4975857;28;20551;-61
2022/07/12 03:34:35;;;;;;;1.27;0.90;;;17.70;99.90;;;;;;4974596;28;20204;-61
2022/07/12 03:37:01;;;;;;;1.25;1.08;;;17.60;99.90;;;;;;4975720;28;20177;-61
2022/07/12 03:39:27;;;;;;;0.88;0.77;;;17.60;99.90;;;;;;4975904;28;20592;-61
2022/07/12 03:41:53;;;;;;;1.15;1.05;;;17.60;99.90;;;;;;4975166;28;20185;-61
2022/07/12 03:44:19;;;;;;;1.20;0.77;;;17.60;99.90;;;;;;4975758;28;20297;-61
2022/07/12 03:46:44;;;;;;;0.98;0.88;;;17.50;99.90;;;;;;4974353;28;20636;-60
2022/07/12 03:49:10;;;;;;;1.23;1.02;;;17.50;99.90;;;;;;4975290;28;20210;-61
2022/07/12 03:51:35;;;;;;;1.13;1.02;;;17.50;99.90;;;;;;4975467;28;20182;-61
2022/07/12 03:54:02;;;;;;;1.08;0.90;;;17.50;99.90;;;;;;4975666;28;20190;-61
2022/07/12 03:59:12;;;;;;;1.13;0.80;;;17.40;99.90;;;;;;4974630;28;20218;-61
2022/07/12 04:01:38;;;;;;;1.65;0.90;;;17.40;99.90;;;;;;4975291;28;20261;-61
2022/07/12 04:04:03;;;;;;;1.02;0.90;;;17.40;99.90;;;;;;4975230;28;20217;-61
2022/07/12 04:06:29;;;;;;;1.10;1.00;;;17.50;99.90;;;;;;4975411;28;20640;-61
2022/07/12 04:08:55;;;;;;;1.13;1.00;;;17.50;99.90;;;;;;4975092;28;20214;-57
2022/07/12 04:11:21;;;;;;;1.20;1.10;;;17.50;99.90;;;;;;4975214;28;20584;-60
2022/07/12 04:13:46;;;;;;;0.82;0.80;;;17.50;99.90;;;;;;4975152;28;20178;-61
2022/07/12 04:16:12;;;;;;;1.25;0.80;;;17.60;99.90;;;;;;4975006;28;20190;-60
2022/07/12 04:18:38;;;;;;;1.38;0.90;;;17.60;99.90;;;;;;4974955;28;20178;-61
2022/07/12 04:21:04;;;;;;;1.27;1.10;;;17.60;99.90;;;;;;4975122;28;20198;-61
2022/07/12 04:23:30;;;;;;;0.98;0.93;;;17.60;99.90;;;;;;4975086;28;20221;-61
2022/07/12 04:25:55;;;;;;;1.48;1.00;;;17.70;99.90;;;;;;4975267;28;20185;-60
2022/07/12 04:28:21;;;;;;;1.00;0.90;;;17.70;99.90;;;;;;4974888;28;20205;-61
2022/07/12 04:30:48;;;;;;;0.80;0.80;;;17.80;99.90;;;;;;4974832;28;20174;-61
2022/07/12 04:33:14;;;;;;;0.70;0.70;;;17.80;99.90;;;;;;4974641;28;20265;-61
2022/07/12 04:35:40;;;;;;;1.00;0.90;;;17.80;99.90;;;;;;4974971;28;20265;-61
2022/07/12 04:38:07;;;;;;;0.80;0.80;;;17.80;99.90;;;;;;4973529;28;20182;-61
2022/07/12 04:40:33;;;;;;;0.93;0.90;;;17.90;99.90;;;;;;4975052;28;20185;-61
2022/07/12 04:42:59;;;;;;;0.73;0.73;;;17.90;99.90;;;;;;4974989;28;20194;-61
2022/07/12 04:45:25;;;;;;;1.73;1.33;;;17.90;99.90;;;;;;4974557;28;20182;-61
2022/07/12 04:47:50;;;;;;;1.08;0.77;;;18.00;99.90;;;;;;4974394;28;20690;-61
2022/07/12 04:50:16;;;;;;;2.40;0.82;;;18.00;99.90;;;;;;4974618;28;20174;-61
2022/07/12 04:52:42;;;;;;;2.42;1.00;;;18.10;99.90;;;;;;4973371;28;20179;-61
2022/07/12 04:55:08;;;;;;;1.33;1.15;;;18.00;99.90;;;;;;4974624;28;20178;-61
2022/07/12 04:57:35;;;;;;;1.00;0.90;;;18.00;99.90;;;;;;4974550;28;20705;-61
2022/07/12 05:00:00;;;;;;;1.42;1.20;;;18.10;99.90;;;;;;4973320;28;20205;-61
2022/07/12 05:02:26;;;;;;;1.40;1.05;;;18.10;99.90;;;;;;4974402;28;20211;-61
2022/07/12 05:04:52;;;;;;;1.58;0.70;;;18.20;99.90;;;;;;4957294;28;20174;-61
2022/07/12 05:07:18;;;;;;;1.10;0.95;;;18.30;99.90;;;;;;4973543;28;20186;-61
2022/07/12 05:09:43;;;;;;;1.42;0.80;;;18.40;99.90;;;;;;4974355;28;20177;-61
2022/07/12 05:12:09;;;;;;;0.82;0.70;;;18.40;99.90;;;;;;4974489;28;20174;-61
2022/07/12 05:14:35;;;;;;;1.17;0.90;;;18.50;99.90;;;;;;4972900;28;20182;-61
2022/07/12 05:17:00;;;;;;;1.60;1.00;;;18.60;99.90;;;;;;4974467;28;20228;-60
2022/07/12 05:19:26;;;;;;;1.13;1.02;;;18.70;99.90;;;;;;4973036;28;20272;-61
2022/07/12 05:21:52;;;;;;;1.08;0.90;;;18.80;99.90;;;;;;4973287;28;20203;-61
2022/07/12 05:24:17;;;;;;;1.33;1.00;;;18.90;99.90;;;;;;4974250;28;20177;-61
2022/07/12 05:26:43;;;;;;;1.63;1.10;;;19.00;99.90;;;;;;4974331;28;20197;-60
2022/07/12 05:29:09;;;;;;;1.45;1.20;;;19.10;99.90;;;;;;4972905;28;20308;-60
2022/07/12 05:31:35;;;;;;;0.70;0.70;;;19.10;99.90;;;;;;4974444;28;20252;-60
2022/07/12 05:34:01;;;;;;;1.02;1.00;;;19.20;99.90;;;;;;4973114;28;20182;-61
2022/07/12 05:36:27;;;;;;;1.30;0.98;;;19.20;99.90;;;;;;4974262;28;20176;-61
2022/07/12 05:38:52;;;;;;;1.17;1.08;;;19.30;99.90;;;;;;4974151;28;20186;-61
2022/07/12 05:41:18;;;;;;;0.80;0.80;;;19.30;99.90;;;;;;4972588;28;20622;-61
2022/07/12 05:43:44;;;;;;;1.23;0.88;;;19.30;99.90;;;;;;4973917;28;20236;-60
2022/07/12 05:46:10;;;;;;;0.95;0.90;;;19.40;99.90;;;;;;4973426;28;20265;-61
2022/07/12 05:48:37;;;;;;;1.98;1.30;;;19.40;99.90;;;;;;4974009;28;20293;-61
2022/07/12 05:53:47;;;;;;;1.30;1.00;;;19.60;99.90;;;;;;4973996;28;20193;-61
2022/07/12 05:56:13;;;;;;;1.30;0.90;;;19.70;99.90;;;;;;4972644;28;20616;-60
2022/07/12 05:58:39;;;;;;;1.40;1.20;;;19.70;99.90;;;;;;4986107;28;20197;-60
2022/07/12 06:01:06;;;;;;;2.03;1.40;;;19.80;99.90;;;;;;4992295;28;20946;-61
2022/07/12 06:03:32;;;;;;;1.60;1.15;;;19.80;99.90;;;;;;4993224;28;20512;-61
2022/07/12 06:05:59;;;;;;;1.55;1.08;;;19.90;99.90;;;;;;4995653;28;20177;-61
2022/07/12 06:08:25;;;;;;;1.15;1.00;;;20.00;99.90;;;;;;4995437;28;20252;-61
2022/07/12 06:10:51;;;;;;;1.48;1.23;;;19.90;99.90;;;;;;4996451;28;20174;-61
2022/07/12 06:13:16;;;;;;;1.42;1.30;;;20.00;99.90;;;;;;4995417;28;20634;-61
2022/07/12 06:15:42;;;;;;;1.17;1.00;;;19.90;99.90;;;;;;4979152;28;20272;-61
2022/07/12 06:18:08;;;;;;;1.42;1.27;;;19.90;99.90;;;;;;4995140;28;20246;-61
2022/07/12 06:20:34;;;;;;;1.83;1.27;;;20.10;99.90;;;;;;4996566;28;20255;-60
2022/07/12 06:23:00;;;;;;;1.40;1.10;;;20.10;99.90;;;;;;4996348;28;20183;-60
2022/07/12 06:25:25;;;;;;;1.52;1.30;;;20.20;99.90;;;;;;4995223;28;20181;-61
2022/07/12 06:27:51;;;;;;;2.60;1.20;;;20.30;99.90;;;;;;4994722;28;20247;-60
2022/07/12 06:30:18;;;;;;;1.50;1.08;;;20.40;99.90;;;;;;4995030;28;20173;-61
2022/07/12 06:32:45;;;;;;;1.65;1.10;;;20.60;99.90;;;;;;4996373;28;20172;-61
2022/07/12 06:35:11;;;;;;;1.85;1.20;;;20.80;99.90;;;;;;4995149;28;20735;-59
2022/07/12 06:37:36;;;;;;;2.83;1.45;;;21.00;99.90;;;;;;4995009;28;20193;-61
2022/07/12 06:40:03;;;;;;;1.15;1.02;;;21.10;99.90;;;;;;4996152;28;20539;-58
2022/07/12 06:42:28;;;;;;;1.45;1.30;;;21.50;99.90;;;;;;4996388;28;20173;-61
2022/07/12 06:44:54;;;;;;;2.80;1.42;;;21.50;99.90;;;;;;4994575;28;20200;-61
2022/07/12 06:47:20;;;;;;;1.38;1.15;;;21.70;99.90;;;;;;4994626;28;20228;-60
2022/07/12 06:49:46;;;;;;;1.73;1.30;;;22.00;99.90;;;;;;4995442;28;20186;-60
2022/07/12 06:52:12;;;;;;;1.52;1.33;;;21.80;99.90;;;;;;4995782;28;20184;-60
2022/07/12 06:54:37;;;;;;;1.35;1.25;;;21.60;99.90;;;;;;4995855;28;20268;-60
2022/07/12 06:57:03;;;;;;;2.15;1.48;;;21.60;99.90;;;;;;4995824;28;20640;-60
2022/07/12 06:59:29;;;;;;;2.17;1.63;;;21.80;99.90;;;;;;4995697;28;20185;-60
2022/07/12 07:01:57;;;;;;;1.45;1.35;;;21.90;99.90;;;;;;4994737;28;20184;-60
2022/07/12 07:04:23;;;;;;;2.10;1.65;;;22.20;99.90;;;;;;4994629;28;20181;-60
2022/07/12 07:06:49;;;;;;;2.28;1.30;;;22.20;99.90;;;;;;4995565;28;20183;-60
2022/07/12 07:09:15;;;;;;;1.45;1.15;;;22.30;99.90;;;;;;4994311;28;20201;-60
2022/07/12 07:11:41;;;;;;;1.40;1.30;;;22.50;99.90;;;;;;4994515;28;20178;-60
2022/07/12 07:14:07;;;;;;;2.65;1.60;;;22.60;99.90;;;;;;4995664;28;20260;-60
2022/07/12 07:16:33;;;;;;;2.22;1.50;;;22.70;99.90;;;;;;4994029;28;20276;-60
2022/07/12 07:18:59;;;;;;;1.60;1.50;;;23.00;99.90;;;;;;4995382;28;20192;-61
2022/07/12 07:21:24;;;;;;;1.88;1.48;;;23.10;99.90;;;;;;4995451;28;20181;-62
2022/07/12 07:23:53;;;;;;;2.28;1.80;;;23.20;99.90;;;;;;4995285;28;20188;-53
2022/07/12 07:26:19;;;;;;;2.33;1.42;;;23.30;99.90;;;;;;4995666;28;20240;-61
2022/07/12 07:31:29;;;;;;;2.60;1.70;;;23.60;99.90;;;;;;4995628;28;20247;-61
2022/07/12 07:33:55;;;;;;;1.60;1.27;;;23.70;99.90;;;;;;4995230;28;20177;-63
2022/07/12 07:36:20;;;;;;;2.55;1.80;;;24.00;99.90;;;;;;4993845;28;20536;-60
2022/07/12 07:38:46;;;;;;;2.63;1.58;;;23.80;99.90;;;;;;4995042;28;20177;-61
2022/07/12 07:41:12;;;;;;;1.75;1.42;;;23.70;99.90;;;;;;4995261;28;20205;-60
2022/07/12 07:43:37;;;;;;;1.92;1.48;;;23.50;99.90;;;;;;4993964;28;20177;-57
2022/07/12 07:46:03;;;;;;;2.20;1.50;;;23.40;99.90;;;;;;4995006;28;20181;-59
2022/07/12 07:48:29;;;;;;;1.95;1.73;;;23.60;99.90;;;;;;4994969;28;20224;-61
2022/07/12 07:50:55;;;;;;;1.60;1.35;;;23.60;99.90;;;;;;4994426;28;20180;-60
2022/07/12 07:53:21;;;;;;;2.58;1.60;;;23.70;99.90;;;;;;4994995;28;20539;-60
2022/07/12 07:55:46;;;;;;;1.95;1.73;;;23.70;99.90;;;;;;4994675;28;20181;-61
2022/07/12 07:58:15;;;;;;;1.55;1.45;;;23.70;99.90;;;;;;4994397;28;20223;-59
2022/07/12 08:00:41;;;;;;;1.85;1.60;;;23.80;99.90;;;;;;4993770;28;20173;-60
2022/07/12 08:03:07;;;;;;;1.85;1.50;;;23.60;99.90;;;;;;4992312;28;20340;-60
2022/07/12 08:05:32;;;;;;;2.42;1.65;;;23.80;99.90;;;;;;4994267;28;20181;-60
2022/07/12 08:07:58;;;;;;;2.00;1.50;;;24.00;99.90;;;;;;4993778;28;20243;-61
2022/07/12 08:10:25;;;;;;;1.73;1.40;;;24.10;99.90;;;;;;4993564;28;20208;-60
2022/07/12 08:12:50;;;;;;;1.90;1.48;;;24.30;99.90;;;;;;4994728;28;20170;-60
2022/07/12 08:15:16;;;;;;;1.95;1.58;;;24.30;99.90;;;;;;4977389;28;20227;-60
2022/07/12 08:17:42;;;;;;;1.38;1.27;;;24.20;99.90;;;;;;4994691;28;20193;-61
2022/07/12 08:20:08;;;;;;;2.30;1.50;;;24.20;99.90;;;;;;4994630;28;20231;-61
2022/07/12 08:22:34;;;;;;;2.13;1.60;;;24.20;99.90;;;;;;4994872;28;20185;-60
2022/07/12 08:24:59;;;;;;;1.45;1.20;;;24.50;99.90;;;;;;4993371;28;20178;-60
2022/07/12 08:27:25;;;;;;;2.20;1.40;;;24.70;99.90;;;;;;4993043;28;20181;-61
2022/07/12 08:29:51;;;;;;;2.45;1.35;;;24.80;99.90;;;;;;4993258;28;20184;-61
2022/07/12 08:32:16;;;;;;;1.65;1.30;;;25.00;99.90;;;;;;4994327;28;20535;-60
2022/07/12 08:34:42;;;;;;;2.33;1.50;;;24.90;99.90;;;;;;4994121;28;20320;-61
2022/07/12 08:37:08;;;;;;;1.80;1.38;;;25.30;99.90;;;;;;4994425;28;20185;-60
2022/07/12 08:39:34;;;;;;;1.70;1.48;;;25.50;99.90;;;;;;4993234;28;20178;-61
2022/07/12 08:41:59;;;;;;;2.83;1.65;;;25.70;99.90;;;;;;4994304;28;20653;-60
2022/07/12 08:44:25;;;;;;;1.65;1.45;;;25.60;99.90;;;;;;4994085;28;20169;-61
2022/07/12 08:46:52;;;;;;;1.52;1.42;;;25.70;99.90;;;;;;4994182;28;20235;-61
2022/07/12 08:49:18;;;;;;;1.98;1.50;;;25.70;99.90;;;;;;4993819;28;20205;-60
2022/07/12 08:51:44;;;;;;;1.88;1.60;;;25.70;99.90;;;;;;4992753;28;20512;-60
2022/07/12 08:54:12;;;;;;;2.20;1.70;;;26.00;99.90;;;;;;4994220;28;20201;-60
2022/07/12 08:56:39;;;;;;;1.70;1.50;;;26.10;99.70;;;;;;4992890;28;20276;-60
2022/07/12 08:59:19;;;;;;;1.52;1.25;;;26.10;99.60;;;;;;4993971;28;20212;-60
2022/07/12 09:01:52;;;;;;;1.83;1.52;;;26.10;99.90;;;;;;4993896;28;20187;-61
2022/07/12 09:04:21;;;;;;;2.42;1.58;;;26.40;99.90;;;;;;4993792;28;20260;-54
2022/07/12 09:06:48;;;;;;;2.20;1.70;;;26.40;99.80;;;;;;4993782;28;20631;-51
2022/07/12 09:09:26;;;;;;;1.85;1.38;;;26.20;99.70;;;;;;4993824;28;20213;-51
2022/07/12 09:11:52;;;;;;;1.75;1.55;;;26.30;99.90;;;;;;4993898;28;20177;-51
2022/07/12 09:14:20;;;;;;;1.38;1.27;;;26.10;99.40;;;;;;4993704;28;20185;-49
2022/07/12 09:17:21;;;;;;;1.95;1.63;;;26.10;99.90;;;;;;4993509;28;20198;-54
2022/07/12 09:19:57;;;;;;;2.05;1.35;;;26.10;99.90;;;;;;4982443;28;20273;-54
2022/07/12 09:22:22;;;;;;;3.95;1.60;;;26.50;99.90;;;;;;4993672;28;20173;-48
2022/07/12 09:24:48;;;;;;;1.70;1.42;;;26.60;99.90;;;;;;4976287;28;20186;-51
2022/07/12 09:27:14;;;;;;;1.80;1.40;;;26.70;99.90;;;;;;4993826;28;20173;-52
2022/07/12 09:29:47;;;;;;;1.45;1.35;;;26.90;99.80;;;;;;4993923;28;20177;-50
2022/07/12 09:37:48;;;;;;;2.08;1.55;;;26.80;98.50;;;;;;4992821;28;20273;-50
2022/07/12 09:40:14;;;;;;;1.67;1.58;;;26.80;98.70;;;;;;4996488;28;20182;-51
2022/07/12 09:42:41;;;;;;;1.80;1.40;;;26.80;98.20;;;;;;4997367;28;20212;-48
2022/07/12 09:45:09;;;;;;;1.75;1.58;;;26.80;98.90;;;;;;4997405;28;20220;-54
2022/07/12 09:47:35;;;;;;;1.75;1.50;;;26.90;97.90;;;;;;4997056;28;20539;-57
2022/07/12 09:50:01;;;;;;;2.88;1.60;;;27.10;99.10;;;;;;4997243;28;20177;-51
2022/07/12 09:52:31;;;;;;;2.20;1.63;;;27.10;99.20;;;;;;4997640;28;20177;-51
2022/07/12 09:54:59;;;;;;;2.13;1.58;;;27.20;98.60;;;;;;4997263;28;20185;-52
2022/07/12 09:57:33;;;;;;;2.85;1.85;;;27.30;99.20;;;;;;4997196;28;20220;-49
2022/07/12 09:59:59;;;;;;;2.00;1.58;;;27.00;99.00;;;;;;4996934;28;20208;-52
2022/07/12 10:02:26;;;;;;;2.00;1.80;;;26.80;98.70;;;;;;4995841;28;20260;-49
2022/07/12 10:04:54;;;;;;;2.33;1.80;;;26.70;97.60;;;;;;4995890;28;20280;-49
2022/07/12 10:07:20;;;;;;;2.00;1.40;;;26.60;98.40;;;;;;4995777;28;20232;-52
2022/07/12 10:09:52;;;;;;;1.85;1.48;;;27.00;99.00;;;;;;4996925;28;20527;-49
2022/07/12 10:12:20;;;;;;;1.83;1.55;;;27.10;98.70;;;;;;4995705;28;20574;-51
2022/07/12 10:14:48;;;;;;;2.13;1.63;;;27.20;98.10;;;;;;4996242;28;20252;-60
2022/07/12 10:17:21;;;;;;;1.55;1.45;;;27.40;97.80;;;;;;4995426;28;20193;-59
2022/07/12 10:19:47;;;;;;;1.38;1.25;;;27.40;97.00;;;;;;4995407;28;20177;-60
2022/07/12 10:22:21;;;;;;;1.67;1.30;;;27.70;97.20;;;;;;4986762;28;20196;-60
2022/07/12 10:24:54;;;;;;;1.48;1.23;;;27.70;96.30;;;;;;4977278;28;20563;-60
2022/07/12 10:27:20;;;;;;;2.13;1.33;;;27.90;96.80;;;;;;4977098;28;20189;-60
2022/07/12 10:29:53;;;;;;;3.03;1.55;;;28.00;96.10;;;;;;4976518;28;20178;-59
2022/07/12 10:32:35;;;;;;;1.65;1.30;;;27.90;95.20;;;;;;4977166;28;20209;-60
2022/07/12 10:35:05;;;;;;;1.75;1.33;;;27.80;95.80;;;;;;4977025;28;20202;-59
2022/07/12 10:37:31;;;;;;;1.38;1.10;;;28.00;96.10;;;;;;4976842;28;20643;-59
2022/07/12 10:40:20;;;;;;;1.10;1.00;;;28.10;93.90;;;;;;4976826;28;20260;-60
2022/07/12 10:43:00;;;;;;;1.90;1.40;;;28.00;94.90;;;;;;4977043;28;20177;-60
2022/07/12 10:45:31;;;;;;;1.83;1.30;;;27.80;94.80;;;;;;4977002;28;20185;-59
2022/07/12 10:47:58;;;;;;;2.45;1.20;;;27.80;94.40;;;;;;4976703;28;20290;-60
2022/07/12 10:50:57;;;;;;;1.77;1.17;;;28.10;95.00;;;;;;4976889;28;20204;-59
2022/07/12 10:53:30;;;;;;;1.52;1.40;;;28.00;94.80;;;;;;4965668;28;20190;-60
2022/07/12 10:56:19;;;;;;;1.50;1.10;;;28.30;95.30;;;;;;4976700;28;20174;-60
2022/07/12 10:58:55;;;;;;;1.45;1.20;;;28.60;94.30;;;;;;4976743;28;20185;-60
2022/07/12 11:01:24;;;;;;;1.63;1.23;;;28.50;93.60;;;;;;4976619;28;20651;-59
2022/07/12 11:04:05;;;;;;;1.33;1.23;;;28.30;93.90;;;;;;4976569;28;20282;-60
2022/07/12 11:06:37;;;;;;;1.55;1.30;;;28.60;94.90;;;;;;4975326;28;20185;-60
2022/07/12 11:09:06;;;;;;;1.45;1.33;;;28.60;93.50;;;;;;4976516;28;20209;-60
2022/07/12 11:11:45;;;;;;;1.77;1.15;;;28.50;93.60;;;;;;4976441;28;20178;-59
2022/07/12 11:14:19;;;;;;;1.33;1.23;;;28.50;94.80;;;;;;4976407;28;20170;-60
2022/07/12 11:16:47;;;;;;;1.55;1.23;;;28.50;93.70;;;;;;4976164;28;20201;-60
2022/07/12 11:19:13;;;;;;;1.35;1.05;;;28.40;93.10;;;;;;4976105;28;20209;-60
2022/07/12 11:21:42;;;;;;;1.67;1.30;;;28.50;94.40;;;;;;4976278;28;20265;-60
2022/07/12 11:24:19;;;;;;;1.40;1.27;;;28.40;92.70;;;;;;4976186;28;20739;-60
2022/07/12 11:26:45;;;;;;;2.13;1.45;;;28.60;93.80;;;;;;4975727;28;20186;-59
2022/07/12 11:29:12;;;;;;;1.80;1.30;;;28.40;92.30;;;;;;4958262;28;20233;-60
2022/07/12 11:31:38;;;;;;;1.20;1.10;;;28.50;93.60;;;;;;4975885;28;20206;-60
2022/07/12 11:34:03;;;;;;;1.30;1.20;;;28.90;92.90;;;;;;4975882;28;20256;-50
2022/07/12 11:36:30;;;;;;;1.70;1.30;;;29.00;92.90;;;;;;4976005;28;20181;-50
2022/07/12 11:38:56;;;;;;;1.42;1.17;;;28.80;91.40;;;;;;4976362;28;20528;-53
2022/07/12 11:41:23;;;;;;;1.67;1.30;;;29.00;92.60;;;;;;4974663;28;20177;-53
2022/07/12 11:43:49;;;;;;;1.88;1.20;;;29.30;92.80;;;;;;4974430;28;20178;-55
2022/07/12 11:46:15;;;;;;;1.58;1.20;;;29.60;92.00;;;;;;4975535;28;20264;-58
2022/07/12 11:48:42;;;;;;;1.50;1.38;;;29.50;92.00;;;;;;4975478;28;20297;-56
2022/07/12 11:51:10;;;;;;;1.60;0.95;;;29.40;91.60;;;;;;4975704;28;20182;-56
2022/07/12 11:53:37;;;;;;;1.45;1.10;;;29.50;91.70;;;;;;4975626;28;20193;-56
2022/07/12 11:56:05;;;;;;;1.23;1.00;;;29.60;90.80;;;;;;4975524;28;20698;-53
2022/07/12 11:58:38;;;;;;;1.67;1.10;;;29.80;90.90;;;;;;4975520;28;20170;-50
2022/07/12 12:01:05;;;;;;;1.25;1.10;;;29.90;91.40;;;;;;4975141;28;20236;-51
2022/07/12 12:03:32;;;;;;;1.83;1.30;;;29.80;90.20;;;;;;4975221;28;20249;-53
2022/07/12 12:05:58;;;;;;;1.10;1.00;;;30.00;91.30;;;;;;4975247;28;20186;-50
2022/07/12 12:08:25;;;;;;;1.52;1.17;;;30.00;91.10;;;;;;4975275;28;20209;-52
2022/07/12 12:10:54;;;;;;;2.97;1.48;;;30.10;91.30;;;;;;4975254;28;20555;-51
2022/07/12 12:13:21;;;;;;;2.35;1.40;;;29.90;89.70;;;;;;4975095;28;20182;-54
2022/07/12 12:16:15;;;;;;;1.60;1.30;;;29.90;89.80;;;;;;4975464;28;20246;-49
2022/07/12 12:18:43;;;;;;;1.35;1.25;;;30.10;91.10;;;;;;4962477;28;20261;-48
2022/07/12 12:21:11;;;;;;;3.15;1.33;;;30.10;90.30;;;;;;4973950;28;20272;-47
2022/07/12 12:23:38;;;;;;;1.30;1.20;;;30.10;90.00;;;;;;4973939;28;20174;-52
2022/07/12 12:26:23;;;;;;;1.90;1.25;;;30.10;90.00;;;;;;4973703;28;20621;-48
2022/07/12 12:28:53;;;;;;;1.15;1.10;;;30.40;90.10;;;;;;4975092;28;20249;-49
2022/07/12 12:31:23;;;;;;;1.38;1.00;;;30.50;89.00;;;;;;4974989;28;20182;-50
2022/07/12 12:33:56;;;;;;;1.02;0.90;;;30.40;89.90;;;;;;4974902;28;20182;-47
2022/07/12 12:36:24;;;;;;;1.20;1.00;;;30.40;89.90;;;;;;4974816;28;20170;-50
2022/07/12 12:38:52;;;;;;;1.85;1.30;;;30.40;89.30;;;;;;4974672;28;20509;-54
2022/07/12 12:41:21;;;;;;;2.15;1.40;;;30.50;88.40;;;;;;4974906;28;20169;-57
2022/07/12 12:43:47;;;;;;;1.15;1.00;;;30.20;89.20;;;;;;4989747;28;20182;-53
2022/07/12 12:46:12;;;;;;;1.17;1.00;;;30.20;88.60;;;;;;4974637;28;20205;-56
2022/07/12 12:48:46;;;;;;;1.75;1.02;;;30.30;84.60;;;;;;4973441;28;20218;-56
2022/07/12 12:51:12;;;;;;;1.23;1.02;;;30.20;84.80;;;;;;4974561;28;20513;-56
2022/07/12 12:53:39;;;;;;;1.40;1.10;;;30.10;82.90;;;;;;4974767;28;20174;-55
2022/07/12 12:56:11;;;;;;;2.17;1.30;;;29.90;85.70;;;;;;4974640;28;20173;-54
2022/07/12 12:58:37;;;;;;;1.25;1.00;;;29.90;85.80;;;;;;4974531;28;20174;-55
2022/07/12 13:01:05;;;;;;;2.88;1.33;;;29.90;88.10;;;;;;4974556;28;20182;-54
2022/07/12 13:03:31;;;;;;;1.50;1.40;;;29.80;87.50;;;;;;4974429;28;20166;-51